sensor_id;sensor_type;location;lat;lon;timestamp;P1;durP1;ratioP1;P2;durP2;ratioP2
3831;SDS011;12460;42.662;23.288;2023-11-21T00:13:43;20.73;;;14.33;;
3831;SDS011;12460;42.662;23.288;2023-11-21T00:28:45;21.17;;;14.07;;
3831;SDS011;12460;42.662;23.288;2023-11-21T00:43:47;19.00;;;12.10;;
3831;SDS011;12460;42.662;23.288;2023-11-21T00:58:49;18.93;;;13.70;;
3831;SDS011;12460;42.662;23.288;2023-11-21T01:13:54;18.10;;;12.83;;
3831;SDS011;12460;42.662;23.288;2023-11-21T01:28:55;18.57;;;13.47;;
3831;SDS011;12460;42.662;23.288;2023-11-21T01:43:59;17.60;;;12.23;;
3831;SDS011;12460;42.662;23.288;2023-11-21T01:59:01;16.97;;;12.00;;
3831;SDS011;12460;42.662;23.288;2023-11-21T02:14:03;16.23;;;11.17;;
3831;SDS011;12460;42.662;23.288;2023-11-21T02:29:09;15.03;;;11.27;;
3831;SDS011;12460;42.662;23.288;2023-11-21T02:44:14;18.83;;;12.47;;
3831;SDS011;12460;42.662;23.288;2023-11-21T02:59:15;20.50;;;14.13;;
3831;SDS011;12460;42.662;23.288;2023-11-21T03:14:17;20.57;;;12.83;;
3831;SDS011;12460;42.662;23.288;2023-11-21T03:29:19;16.97;;;12.00;;
3831;SDS011;12460;42.662;23.288;2023-11-21T03:44:21;14.80;;;11.83;;
3831;SDS011;12460;42.662;23.288;2023-11-21T03:59:23;18.00;;;13.33;;
3831;SDS011;12460;42.662;23.288;2023-11-21T04:14:25;24.20;;;14.90;;
3831;SDS011;12460;42.662;23.288;2023-11-21T04:29:27;21.30;;;14.80;;
3831;SDS011;12460;42.662;23.288;2023-11-21T04:44:29;20.00;;;13.57;;
3831;SDS011;12460;42.662;23.288;2023-11-21T04:59:31;25.20;;;15.90;;
3831;SDS011;12460;42.662;23.288;2023-11-21T05:14:33;23.97;;;17.37;;
3831;SDS011;12460;42.662;23.288;2023-11-21T05:29:34;18.83;;;13.90;;
3831;SDS011;12460;42.662;23.288;2023-11-21T05:44:41;23.87;;;16.00;;
3831;SDS011;12460;42.662;23.288;2023-11-21T05:59:44;23.00;;;15.57;;
3831;SDS011;12460;42.662;23.288;2023-11-21T06:14:47;28.23;;;19.40;;
3831;SDS011;12460;42.662;23.288;2023-11-21T06:29:49;24.03;;;17.60;;
3831;SDS011;12460;42.662;23.288;2023-11-21T06:44:51;24.97;;;17.97;;
3831;SDS011;12460;42.662;23.288;2023-11-21T06:59:53;25.23;;;16.53;;
3831;SDS011;12460;42.662;23.288;2023-11-21T07:14:55;35.27;;;27.10;;
3831;SDS011;12460;42.662;23.288;2023-11-21T07:29:57;35.27;;;26.27;;
3831;SDS011;12460;42.662;23.288;2023-11-21T07:44:59;32.77;;;23.93;;
3831;SDS011;12460;42.662;23.288;2023-11-21T08:00:00;29.97;;;22.57;;
3831;SDS011;12460;42.662;23.288;2023-11-21T08:15:12;24.70;;;20.43;;
3831;SDS011;12460;42.662;23.288;2023-11-21T08:30:14;28.90;;;22.03;;
3831;SDS011;12460;42.662;23.288;2023-11-21T08:45:18;30.33;;;25.00;;
3831;SDS011;12460;42.662;23.288;2023-11-21T09:00:21;32.47;;;25.07;;
3831;SDS011;12460;42.662;23.288;2023-11-21T09:15:23;25.40;;;20.33;;
3831;SDS011;12460;42.662;23.288;2023-11-21T09:30:25;27.60;;;21.30;;
3831;SDS011;12460;42.662;23.288;2023-11-21T09:45:27;25.00;;;18.97;;
3831;SDS011;12460;42.662;23.288;2023-11-21T10:00:31;18.00;;;14.40;;
3831;SDS011;12460;42.662;23.288;2023-11-21T10:15:36;17.90;;;14.20;;
3831;SDS011;12460;42.662;23.288;2023-11-21T10:30:39;16.97;;;13.20;;
3831;SDS011;12460;42.662;23.288;2023-11-21T10:45:41;21.70;;;16.20;;
3831;SDS011;12460;42.662;23.288;2023-11-21T11:00:44;25.37;;;19.87;;
3831;SDS011;12460;42.662;23.288;2023-11-21T11:15:47;19.60;;;17.07;;
3831;SDS011;12460;42.662;23.288;2023-11-21T11:31:13;25.50;;;19.77;;
3831;SDS011;12460;42.662;23.288;2023-11-21T11:46:20;28.37;;;21.83;;
3831;SDS011;12460;42.662;23.288;2023-11-21T12:01:44;31.33;;;22.83;;
3831;SDS011;12460;42.662;23.288;2023-11-21T12:16:48;20.87;;;18.20;;
3831;SDS011;12460;42.662;23.288;2023-11-21T12:31:50;28.30;;;22.00;;
3831;SDS011;12460;42.662;23.288;2023-11-21T12:46:52;39.17;;;28.37;;
3831;SDS011;12460;42.662;23.288;2023-11-21T13:01:54;41.97;;;29.27;;
3831;SDS011;12460;42.662;23.288;2023-11-21T13:17:00;45.80;;;29.70;;
3831;SDS011;12460;42.662;23.288;2023-11-21T13:32:02;37.83;;;27.90;;
3831;SDS011;12460;42.662;23.288;2023-11-21T13:47:06;38.63;;;28.20;;
3831;SDS011;12460;42.662;23.288;2023-11-21T14:02:08;41.60;;;29.97;;
3831;SDS011;12460;42.662;23.288;2023-11-21T14:17:20;42.47;;;32.00;;
3831;SDS011;12460;42.662;23.288;2023-11-21T14:32:23;43.27;;;31.60;;
3831;SDS011;12460;42.662;23.288;2023-11-21T14:47:27;44.90;;;30.63;;
3831;SDS011;12460;42.662;23.288;2023-11-21T15:02:29;42.97;;;31.00;;
3831;SDS011;12460;42.662;23.288;2023-11-21T15:17:51;43.10;;;32.67;;
3831;SDS011;12460;42.662;23.288;2023-11-21T15:32:53;44.60;;;32.97;;
3831;SDS011;12460;42.662;23.288;2023-11-21T15:47:55;57.63;;;41.20;;
3831;SDS011;12460;42.662;23.288;2023-11-21T16:02:59;46.93;;;28.50;;
3831;SDS011;12460;42.662;23.288;2023-11-21T16:18:01;36.27;;;25.10;;
3831;SDS011;12460;42.662;23.288;2023-11-21T16:33:03;61.60;;;38.23;;
3831;SDS011;12460;42.662;23.288;2023-11-21T16:48:05;69.37;;;46.50;;
3831;SDS011;12460;42.662;23.288;2023-11-21T17:03:09;60.27;;;42.67;;
3831;SDS011;12460;42.662;23.288;2023-11-21T17:18:13;60.53;;;39.83;;
3831;SDS011;12460;42.662;23.288;2023-11-21T17:33:15;68.27;;;44.07;;
3831;SDS011;12460;42.662;23.288;2023-11-21T17:48:17;61.43;;;39.90;;
3831;SDS011;12460;42.662;23.288;2023-11-21T18:03:19;54.80;;;38.60;;
3831;SDS011;12460;42.662;23.288;2023-11-21T18:18:22;68.43;;;43.23;;
3831;SDS011;12460;42.662;23.288;2023-11-21T18:33:23;66.20;;;45.73;;
3831;SDS011;12460;42.662;23.288;2023-11-21T18:48:25;61.97;;;41.43;;
3831;SDS011;12460;42.662;23.288;2023-11-21T19:03:30;50.53;;;34.77;;
3831;SDS011;12460;42.662;23.288;2023-11-21T19:18:33;56.13;;;37.87;;
3831;SDS011;12460;42.662;23.288;2023-11-21T19:33:35;53.63;;;39.80;;
3831;SDS011;12460;42.662;23.288;2023-11-21T19:48:37;62.80;;;41.53;;
3831;SDS011;12460;42.662;23.288;2023-11-21T20:03:39;63.07;;;41.00;;
3831;SDS011;12460;42.662;23.288;2023-11-21T20:18:42;50.83;;;34.67;;
3831;SDS011;12460;42.662;23.288;2023-11-21T20:33:44;45.23;;;30.90;;
3831;SDS011;12460;42.662;23.288;2023-11-21T20:48:46;36.03;;;24.00;;
3831;SDS011;12460;42.662;23.288;2023-11-21T21:03:50;33.23;;;23.10;;
3831;SDS011;12460;42.662;23.288;2023-11-21T21:18:53;35.00;;;23.67;;
3831;SDS011;12460;42.662;23.288;2023-11-21T21:33:55;29.50;;;21.63;;
3831;SDS011;12460;42.662;23.288;2023-11-21T21:48:57;31.33;;;24.00;;
3831;SDS011;12460;42.662;23.288;2023-11-21T22:03:59;34.80;;;24.40;;
3831;SDS011;12460;42.662;23.288;2023-11-21T22:19:01;33.97;;;22.83;;
3831;SDS011;12460;42.662;23.288;2023-11-21T22:34:03;32.80;;;23.13;;
3831;SDS011;12460;42.662;23.288;2023-11-21T22:49:05;34.30;;;24.60;;
3831;SDS011;12460;42.662;23.288;2023-11-21T23:04:09;31.67;;;22.50;;
3831;SDS011;12460;42.662;23.288;2023-11-21T23:19:11;29.97;;;21.60;;
3831;SDS011;12460;42.662;23.288;2023-11-21T23:34:18;25.53;;;18.37;;
3831;SDS011;12460;42.662;23.288;2023-11-21T23:49:23;28.70;;;19.30;;
